Time;durP1;ratioP1;P1;durP2;ratioP2;P2;SDS_P1;SDS_P2;PMS_P1;PMS_P2;Temp;Humidity;BMP_temperature;BMP_pressure;BME280_temperature;BME280_humidity;BME280_pressure;Samples;Min_cycle;Max_cycle;Signal;HPM_P1;HPM_P2
2023/06/05 00:01:12;;;;;;;2.97;1.55;;;18.50;95.60;;;;;;4162988;28;20046;-61
2023/06/05 00:03:13;;;;;;;2.88;1.67;;;18.40;95.60;;;;;;4165446;28;20061;-60
2023/06/05 00:05:15;;;;;;;3.10;1.88;;;18.40;95.40;;;;;;4167446;28;20045;-61
2023/06/05 00:07:15;;;;;;;2.92;1.92;;;18.40;95.90;;;;;;4165347;28;20136;-60
2023/06/05 00:09:16;;;;;;;2.67;1.90;;;18.40;96.30;;;;;;4166484;28;25095;-60
2023/06/05 00:11:17;;;;;;;6.15;2.03;;;18.30;96.60;;;;;;4167278;28;20480;-60
2023/06/05 00:13:18;;;;;;;3.95;2.00;;;18.30;96.30;;;;;;4165551;28;20029;-60
2023/06/05 00:15:18;;;;;;;4.15;2.13;;;18.30;96.50;;;;;;4169171;28;20054;-60
2023/06/05 00:17:19;;;;;;;2.85;1.65;;;18.20;96.40;;;;;;4166571;28;20443;-60
2023/06/05 00:19:20;;;;;;;2.55;2.03;;;18.20;96.90;;;;;;4167954;28;20038;-60
2023/06/05 00:21:20;;;;;;;3.42;2.10;;;18.20;96.50;;;;;;4169865;28;20025;-60
2023/06/05 00:23:21;;;;;;;5.85;2.03;;;18.20;96.70;;;;;;4171527;28;20459;-60
2023/06/05 00:25:22;;;;;;;2.45;1.63;;;18.10;95.80;;;;;;4167473;28;20115;-60
2023/06/05 00:27:22;;;;;;;3.47;2.00;;;18.10;95.70;;;;;;4169945;28;20056;-60
2023/06/05 00:29:23;;;;;;;4.53;2.10;;;18.10;96.90;;;;;;4172114;28;20036;-60
2023/06/05 00:31:24;;;;;;;2.95;1.90;;;18.00;97.40;;;;;;4174637;28;20110;-60
2023/06/05 00:33:24;;;;;;;3.08;2.05;;;17.90;97.00;;;;;;4169044;28;20064;-60
2023/06/05 00:35:25;;;;;;;2.78;1.70;;;17.90;97.00;;;;;;4165216;28;20479;-60
2023/06/05 00:37:26;;;;;;;2.95;1.70;;;17.90;97.10;;;;;;4168507;28;20396;-60
2023/06/05 00:39:27;;;;;;;2.75;1.75;;;17.90;96.90;;;;;;4175755;28;20119;-65
2023/06/05 00:41:27;;;;;;;4.47;1.90;;;17.80;97.00;;;;;;4167032;28;20041;-61
2023/06/05 00:43:28;;;;;;;3.83;2.00;;;17.90;97.40;;;;;;4169416;28;20387;-60
2023/06/05 00:45:29;;;;;;;3.00;1.92;;;17.80;97.00;;;;;;4173486;28;20361;-60
2023/06/05 00:47:29;;;;;;;2.83;1.80;;;17.80;97.50;;;;;;4172532;28;20041;-60
2023/06/05 00:49:31;;;;;;;3.83;1.95;;;17.70;97.80;;;;;;4165100;28;20076;-60
2023/06/05 00:51:31;;;;;;;5.53;2.03;;;17.70;97.80;;;;;;4171191;28;20041;-60
2023/06/05 00:53:36;;;;;;;2.45;1.83;;;17.60;98.00;;;;;;4166956;28;20041;-60
2023/06/05 00:55:37;;;;;;;3.58;2.00;;;17.60;97.90;;;;;;4163647;28;20029;-60
2023/06/05 00:57:41;;;;;;;2.35;1.88;;;17.50;98.10;;;;;;4174841;28;20499;-60
2023/06/05 00:59:44;;;;;;;3.92;1.58;;;17.50;97.60;;;;;;4169074;28;20042;-60
2023/06/05 01:01:45;;;;;;;3.30;1.88;;;17.50;98.40;;;;;;4168757;28;20049;-61
2023/06/05 01:03:47;;;;;;;4.32;1.75;;;17.50;98.00;;;;;;4168098;28;20033;-61
2023/06/05 01:05:48;;;;;;;2.83;2.03;;;17.40;97.60;;;;;;4172725;28;20044;-60
2023/06/05 01:07:48;;;;;;;3.88;2.28;;;17.40;97.70;;;;;;4166844;28;20033;-60
2023/06/05 01:09:49;;;;;;;5.30;2.17;;;17.40;98.60;;;;;;4167991;28;20037;-60
2023/06/05 01:12:00;;;;;;;5.20;2.30;;;17.40;99.10;;;;;;4172286;28;20056;-60
2023/06/05 01:14:16;;;;;;;3.90;2.13;;;17.40;98.60;;;;;;4167013;28;20116;-60
2023/06/05 01:16:18;;;;;;;3.35;1.80;;;17.30;98.50;;;;;;4171456;28;20198;-60
2023/06/05 01:18:19;;;;;;;3.50;1.90;;;17.20;98.80;;;;;;4169057;28;20037;-60
2023/06/05 01:20:20;;;;;;;3.25;1.85;;;17.30;98.90;;;;;;4166745;28;20533;-60
2023/06/05 01:22:21;;;;;;;4.53;2.00;;;17.20;99.40;;;;;;4170960;28;20075;-60
2023/06/05 01:24:22;;;;;;;3.45;2.10;;;17.20;98.60;;;;;;4163507;28;20034;-61
2023/06/05 01:26:30;;;;;;;2.90;1.73;;;17.10;98.10;;;;;;4173282;28;20564;-60
2023/06/05 01:28:31;;;;;;;3.15;1.83;;;17.10;99.90;;;;;;4169366;28;20029;-60
2023/06/05 01:30:52;;;;;;;4.47;1.80;;;17.20;99.90;;;;;;4174376;28;20256;-60
2023/06/05 01:33:02;;;;;;;6.25;2.63;;;17.10;99.20;;;;;;4169376;28;20037;-60
2023/06/05 01:35:10;;;;;;;3.63;2.22;;;17.10;99.80;;;;;;4170185;28;20051;-60
2023/06/05 01:37:16;;;;;;;2.97;1.90;;;17.10;99.30;;;;;;4167409;28;20040;-60
2023/06/05 01:39:18;;;;;;;3.28;1.95;;;17.00;98.80;;;;;;4170707;28;20037;-60
2023/06/05 01:41:19;;;;;;;5.27;2.23;;;16.90;98.60;;;;;;4161506;28;20144;-60
2023/06/05 01:43:20;;;;;;;4.18;1.90;;;16.90;99.80;;;;;;4176759;28;20037;-60
2023/06/05 01:45:21;;;;;;;3.70;1.90;;;16.80;99.40;;;;;;4174495;28;20449;-60
2023/06/05 01:47:23;;;;;;;3.75;1.73;;;16.70;98.60;;;;;;4168969;28;20432;-60
2023/06/05 01:49:24;;;;;;;2.92;1.73;;;16.70;98.90;;;;;;4171749;28;20405;-60
2023/06/05 01:51:24;;;;;;;3.35;2.10;;;16.60;99.10;;;;;;4166740;28;20029;-60
2023/06/05 01:53:25;;;;;;;3.70;2.00;;;16.60;99.50;;;;;;4171828;28;20180;-60
2023/06/05 01:55:26;;;;;;;4.47;2.17;;;16.60;99.40;;;;;;4170300;28;20060;-60
2023/06/05 01:57:27;;;;;;;6.40;2.60;;;16.50;99.50;;;;;;4173881;28;20524;-60
2023/06/05 01:59:28;;;;;;;9.07;2.30;;;16.40;99.60;;;;;;4171744;28;20029;-60
2023/06/05 02:01:29;;;;;;;5.60;2.28;;;16.40;99.90;;;;;;4169497;28;20125;-61
2023/06/05 02:03:30;;;;;;;2.70;2.17;;;16.40;99.80;;;;;;4167916;28;20038;-61
2023/06/05 02:05:31;;;;;;;5.97;2.33;;;16.40;99.90;;;;;;4169377;28;20047;-60
2023/06/05 02:07:32;;;;;;;4.90;2.05;;;16.40;99.90;;;;;;4163925;28;20040;-60
2023/06/05 02:09:33;;;;;;;2.80;2.00;;;16.40;99.90;;;;;;4166539;28;20375;-60
2023/06/05 02:11:36;;;;;;;4.15;2.20;;;16.30;99.90;;;;;;4166905;28;20045;-60
2023/06/05 02:13:39;;;;;;;3.45;2.08;;;16.40;99.90;;;;;;4169363;28;20033;-60
2023/06/05 02:15:41;;;;;;;6.30;2.63;;;16.40;99.90;;;;;;4172028;28;20446;-60
2023/06/05 02:17:44;;;;;;;2.40;1.83;;;16.40;99.90;;;;;;4168164;28;20064;-60
2023/06/05 02:19:45;;;;;;;3.33;1.92;;;16.30;99.90;;;;;;4167809;28;20041;-61
2023/06/05 02:21:45;;;;;;;5.15;2.30;;;16.30;99.80;;;;;;4171142;28;20546;-60
2023/06/05 02:23:46;;;;;;;4.25;2.35;;;16.30;99.90;;;;;;4169031;28;20468;-61
2023/06/05 02:25:46;;;;;;;4.82;2.47;;;16.30;99.90;;;;;;4169583;28;20551;-60
2023/06/05 02:27:47;;;;;;;2.58;1.88;;;16.20;99.90;;;;;;4172042;28;20078;-60
2023/06/05 02:29:48;;;;;;;2.63;1.73;;;16.20;99.90;;;;;;4170712;28;20041;-60
2023/06/05 02:31:48;;;;;;;3.13;2.10;;;16.10;99.90;;;;;;4173581;28;20400;-60
2023/06/05 02:33:55;;;;;;;3.00;1.95;;;16.10;99.90;;;;;;4167815;28;20040;-60
2023/06/05 02:35:56;;;;;;;3.28;2.13;;;16.10;99.90;;;;;;4169276;28;20069;-60
2023/06/05 02:37:57;;;;;;;2.92;1.73;;;16.10;99.90;;;;;;4168998;28;20039;-60
2023/06/05 02:39:57;;;;;;;3.70;2.08;;;16.10;99.90;;;;;;4167497;28;20100;-60
2023/06/05 02:41:58;;;;;;;3.53;2.00;;;16.10;99.90;;;;;;4170440;28;20033;-60
2023/06/05 02:43:59;;;;;;;3.03;2.03;;;16.10;99.90;;;;;;4170056;28;20064;-60
2023/06/05 02:46:00;;;;;;;4.05;2.10;;;16.10;99.90;;;;;;4170359;28;20112;-60
2023/06/05 02:48:00;;;;;;;5.35;2.50;;;16.10;99.90;;;;;;4167165;28;20026;-60
2023/06/05 02:50:02;;;;;;;5.82;2.35;;;16.00;99.90;;;;;;4168717;28;20098;-60
2023/06/05 02:52:03;;;;;;;3.13;2.35;;;16.00;99.90;;;;;;4167871;28;20492;-60
2023/06/05 02:54:04;;;;;;;4.80;2.45;;;16.00;99.90;;;;;;4165854;28;20041;-60
2023/06/05 02:56:05;;;;;;;6.45;2.70;;;16.00;99.90;;;;;;4167547;28;20044;-60
2023/06/05 02:58:06;;;;;;;6.00;2.40;;;15.80;99.90;;;;;;4169760;28;20127;-60
2023/06/05 03:00:09;;;;;;;3.45;2.55;;;15.70;99.90;;;;;;4173229;28;20041;-60
2023/06/05 03:02:11;;;;;;;2.88;2.17;;;15.50;99.90;;;;;;4166287;28;20045;-60
2023/06/05 03:04:12;;;;;;;3.53;2.00;;;15.60;99.90;;;;;;4170646;28;20060;-60
2023/06/05 03:06:17;;;;;;;4.03;2.53;;;15.50;99.90;;;;;;4163642;28;20051;-61
2023/06/05 03:08:17;;;;;;;6.00;2.47;;;15.50;99.90;;;;;;4161491;28;20383;-60
2023/06/05 03:10:20;;;;;;;3.50;2.40;;;15.60;99.90;;;;;;4164901;28;20659;-60
2023/06/05 03:12:21;;;;;;;6.28;2.70;;;15.50;99.90;;;;;;4169772;28;20037;-60
2023/06/05 03:14:21;;;;;;;4.20;2.55;;;15.40;99.90;;;;;;4171581;28;20086;-60
2023/06/05 03:16:23;;;;;;;3.58;2.35;;;15.40;99.90;;;;;;4169376;28;20033;-60
2023/06/05 03:18:25;;;;;;;3.88;2.50;;;15.40;99.90;;;;;;4166539;28;20037;-59
2023/06/05 03:20:25;;;;;;;6.22;2.70;;;15.40;99.90;;;;;;4164777;28;20040;-60
2023/06/05 03:22:26;;;;;;;3.05;2.47;;;15.40;99.90;;;;;;4166085;28;20383;-59
2023/06/05 03:24:27;;;;;;;3.17;2.20;;;15.30;99.90;;;;;;4173608;28;20380;-59
2023/06/05 03:26:28;;;;;;;3.55;2.20;;;15.30;99.90;;;;;;4164680;28;20403;-60
2023/06/05 03:28:33;;;;;;;4.65;2.10;;;15.20;99.90;;;;;;4170490;28;20040;-61
2023/06/05 03:30:33;;;;;;;4.53;2.83;;;15.20;99.90;;;;;;4168280;28;20048;-60
2023/06/05 03:32:34;;;;;;;7.50;2.40;;;15.10;99.90;;;;;;4171313;28;20045;-59
2023/06/05 03:34:36;;;;;;;5.80;2.85;;;15.10;99.90;;;;;;4165600;28;20048;-60
2023/06/05 03:36:39;;;;;;;5.90;2.50;;;15.10;99.90;;;;;;4168863;28;20045;-60
2023/06/05 03:38:39;;;;;;;5.00;2.58;;;15.10;99.90;;;;;;4169424;28;20033;-60
2023/06/05 03:40:41;;;;;;;3.85;2.65;;;15.10;99.90;;;;;;4169063;28;20040;-59
2023/06/05 03:42:41;;;;;;;4.22;2.58;;;15.10;99.90;;;;;;4166031;28;20033;-60
2023/06/05 03:44:42;;;;;;;3.70;2.60;;;15.00;99.90;;;;;;4164024;28;20034;-60
2023/06/05 03:46:42;;;;;;;3.28;2.60;;;15.00;99.90;;;;;;4170020;28;20476;-60
2023/06/05 03:48:43;;;;;;;2.38;2.03;;;15.00;99.90;;;;;;4165838;28;20037;-60
2023/06/05 03:50:44;;;;;;;5.32;2.95;;;15.10;99.90;;;;;;4167938;28;21058;-60
2023/06/05 03:52:45;;;;;;;3.70;2.38;;;15.00;99.90;;;;;;4171404;28;20044;-60
2023/06/05 03:54:46;;;;;;;5.30;2.30;;;15.10;99.90;;;;;;4164388;28;20495;-62
2023/06/05 03:56:49;;;;;;;4.30;2.50;;;15.00;99.90;;;;;;4169606;28;20029;-60
2023/06/05 03:58:50;;;;;;;5.32;2.85;;;15.00;99.90;;;;;;4170296;28;20036;-60
2023/06/05 04:00:51;;;;;;;4.47;2.58;;;15.00;99.90;;;;;;4166213;28;20068;-60
2023/06/05 04:02:52;;;;;;;5.15;2.28;;;15.00;99.90;;;;;;4162658;28;20040;-60
2023/06/05 04:04:52;;;;;;;4.15;2.60;;;15.00;99.90;;;;;;4172423;28;20121;-59
2023/06/05 04:06:56;;;;;;;5.10;2.83;;;15.00;99.90;;;;;;4167023;28;20049;-59
2023/06/05 04:08:57;;;;;;;5.50;2.67;;;15.00;99.90;;;;;;4177063;28;20064;-59
2023/06/05 04:10:58;;;;;;;3.75;2.25;;;15.10;99.90;;;;;;4169478;28;20029;-60
2023/06/05 04:12:58;;;;;;;3.05;2.20;;;15.10;99.90;;;;;;4173922;28;20480;-60
2023/06/05 04:14:59;;;;;;;5.03;3.15;;;15.10;99.90;;;;;;4170138;28;20096;-60
2023/06/05 04:17:00;;;;;;;4.85;2.65;;;15.10;99.90;;;;;;4169986;28;20099;-60
2023/06/05 04:19:01;;;;;;;4.88;3.25;;;15.20;99.90;;;;;;4173159;28;20071;-59
2023/06/05 04:21:02;;;;;;;4.47;2.67;;;15.20;99.90;;;;;;4174647;28;20053;-60
2023/06/05 04:23:03;;;;;;;4.43;2.55;;;15.20;99.90;;;;;;4173704;28;20619;-60
2023/06/05 04:25:03;;;;;;;6.60;3.28;;;15.20;99.90;;;;;;4173101;28;20033;-61
2023/06/05 04:27:04;;;;;;;4.47;2.97;;;15.10;99.90;;;;;;4167030;28;20041;-60
2023/06/05 04:29:15;;;;;;;4.70;2.70;;;15.10;99.90;;;;;;4172685;28;20120;-60
2023/06/05 04:31:15;;;;;;;4.57;2.70;;;15.10;99.90;;;;;;4170788;28;20030;-60
2023/06/05 04:33:16;;;;;;;6.20;3.35;;;15.10;99.90;;;;;;4170201;28;20044;-60
2023/06/05 04:35:17;;;;;;;6.68;3.30;;;15.00;99.90;;;;;;4172562;28;20037;-60
2023/06/05 04:37:17;;;;;;;4.15;2.97;;;14.90;99.90;;;;;;4173520;28;20032;-60
2023/06/05 04:39:18;;;;;;;6.13;3.50;;;14.90;99.90;;;;;;4171493;28;20033;-60
2023/06/05 04:41:21;;;;;;;4.72;3.33;;;14.90;99.90;;;;;;4170474;28;20387;-60
2023/06/05 04:43:22;;;;;;;;;;;14.90;99.90;;;;;;4174016;28;20037;-60
2023/06/05 04:45:24;;;;;;;4.43;2.90;;;14.90;99.90;;;;;;4171751;28;19913;-63
2023/06/05 04:47:25;;;;;;;5.32;2.95;;;14.70;99.90;;;;;;4171913;28;20051;-63
2023/06/05 04:49:26;;;;;;;5.85;3.10;;;14.80;99.90;;;;;;4172384;28;20104;-63
2023/06/05 04:51:26;;;;;;;4.32;2.95;;;14.80;99.90;;;;;;4169231;28;20037;-62
2023/06/05 04:53:28;;;;;;;5.20;3.15;;;14.90;99.90;;;;;;4172751;28;20029;-63
2023/06/05 04:55:28;;;;;;;4.78;3.28;;;14.90;99.90;;;;;;4186482;28;20073;-63
2023/06/05 04:57:29;;;;;;;4.93;3.38;;;14.90;99.90;;;;;;4169202;28;20049;-63
2023/06/05 04:59:32;;;;;;;4.97;3.17;;;14.90;99.90;;;;;;4168242;28;20487;-63
2023/06/05 05:01:33;;;;;;;6.60;3.55;;;14.80;99.90;;;;;;4171593;28;20416;-63
2023/06/05 05:03:33;;;;;;;5.05;3.35;;;14.90;99.90;;;;;;4168888;28;20034;-62
2023/06/05 05:05:36;;;;;;;5.65;3.20;;;14.90;99.90;;;;;;4173704;28;20083;-63
2023/06/05 05:07:36;;;;;;;3.70;2.80;;;15.00;99.90;;;;;;4166783;28;20060;-62
2023/06/05 05:09:37;;;;;;;4.95;2.97;;;15.10;99.90;;;;;;4165984;28;20443;-63
2023/06/05 05:11:37;;;;;;;4.18;3.25;;;15.10;99.90;;;;;;4165323;28;20033;-63
2023/06/05 05:13:38;;;;;;;4.68;3.28;;;15.20;99.90;;;;;;4167333;28;20036;-62
2023/06/05 05:15:38;;;;;;;3.92;3.25;;;15.20;99.90;;;;;;4173291;28;20037;-63
2023/06/05 05:17:39;;;;;;;4.55;3.40;;;15.20;99.90;;;;;;4170653;28;20037;-63
2023/06/05 05:19:40;;;;;;;3.85;3.08;;;15.30;99.90;;;;;;4162764;28;20541;-62
2023/06/05 05:21:41;;;;;;;6.05;3.80;;;15.20;99.90;;;;;;4173984;28;20037;-63
2023/06/05 05:23:41;;;;;;;5.80;3.40;;;15.20;99.90;;;;;;4170435;28;20519;-63
2023/06/05 05:25:42;;;;;;;5.43;4.03;;;15.20;99.90;;;;;;4167335;28;20438;-63
2023/06/05 05:27:42;;;;;;;5.35;3.67;;;15.30;99.90;;;;;;4167135;28;20443;-63
2023/06/05 05:29:43;;;;;;;5.53;3.90;;;15.30;99.90;;;;;;4165651;28;20037;-63
2023/06/05 05:31:44;;;;;;;4.72;3.65;;;15.30;99.90;;;;;;4167701;28;20040;-63
2023/06/05 05:33:45;;;;;;;4.43;3.58;;;15.40;99.90;;;;;;4172821;28;20083;-62
2023/06/05 05:35:45;;;;;;;6.13;3.53;;;15.40;99.90;;;;;;4171576;28;20042;-63
2023/06/05 05:37:46;;;;;;;5.47;3.75;;;15.40;99.90;;;;;;4167669;28;20389;-63
2023/06/05 05:39:46;;;;;;;6.55;3.95;;;15.40;99.90;;;;;;4161304;28;20037;-63
2023/06/05 05:41:47;;;;;;;6.07;4.20;;;15.50;99.90;;;;;;4160772;28;20038;-62
2023/06/05 05:43:48;;;;;;;6.05;3.90;;;15.20;99.90;;;;;;4163809;28;20029;-61
2023/06/05 05:45:48;;;;;;;8.05;4.25;;;15.30;99.90;;;;;;4165027;28;20084;-62
2023/06/05 05:47:49;;;;;;;6.38;3.88;;;15.30;99.90;;;;;;4173504;28;20033;-62
2023/06/05 05:49:50;;;;;;;6.47;3.60;;;15.50;99.90;;;;;;4169277;28;20025;-63
2023/06/05 05:51:50;;;;;;;5.57;3.65;;;15.70;99.90;;;;;;4173518;28;20041;-62
2023/06/05 05:53:51;;;;;;;6.47;3.80;;;16.00;99.90;;;;;;4171176;28;20372;-62
2023/06/05 05:55:53;;;;;;;5.55;3.78;;;16.40;99.90;;;;;;4167920;28;20119;-62
2023/06/05 05:57:54;;;;;;;5.47;3.95;;;16.70;99.90;;;;;;4169559;28;20033;-62
2023/06/05 05:59:55;;;;;;;5.10;3.30;;;17.10;99.90;;;;;;4170028;28;20037;-63
2023/06/05 06:01:59;;;;;;;5.32;2.92;;;17.50;99.90;;;;;;4166725;28;20049;-62
2023/06/05 06:03:59;;;;;;;4.70;3.08;;;17.90;99.90;;;;;;4165903;28;20052;-63
2023/06/05 06:06:01;;;;;;;6.88;3.90;;;18.20;99.90;;;;;;4170690;28;20029;-63
2023/06/05 06:08:02;;;;;;;5.20;3.60;;;18.40;99.00;;;;;;4173394;28;20480;-63
2023/06/05 06:10:02;;;;;;;6.13;3.50;;;18.50;98.70;;;;;;4168337;28;20033;-64
2023/06/05 06:12:05;;;;;;;3.63;2.95;;;18.80;98.80;;;;;;4166849;28;20033;-64
2023/06/05 06:14:06;;;;;;;4.85;3.35;;;19.00;98.70;;;;;;4175869;28;20111;-63
2023/06/05 06:16:07;;;;;;;7.05;3.38;;;19.20;97.70;;;;;;4170596;28;20085;-63
2023/06/05 06:18:07;;;;;;;5.07;3.20;;;19.60;99.00;;;;;;4174356;28;20392;-63
2023/06/05 06:20:12;;;;;;;5.45;3.75;;;19.90;97.80;;;;;;4165198;28;20394;-63
2023/06/05 06:22:13;;;;;;;7.55;4.10;;;20.10;97.60;;;;;;4170730;28;20202;-63
2023/06/05 06:24:15;;;;;;;4.57;3.22;;;20.00;95.80;;;;;;4175001;28;20104;-63
2023/06/05 06:26:16;;;;;;;3.92;2.97;;;20.40;96.50;;;;;;4172429;28;20495;-63
2023/06/05 06:28:16;;;;;;;4.35;3.15;;;20.50;94.70;;;;;;4174125;28;20029;-63
2023/06/05 06:30:17;;;;;;;4.60;3.40;;;20.60;94.50;;;;;;4164605;28;20059;-64
2023/06/05 06:32:18;;;;;;;3.58;2.70;;;20.90;95.50;;;;;;4174531;28;20043;-63
2023/06/05 06:34:19;;;;;;;6.32;3.50;;;21.00;95.90;;;;;;4153878;28;20523;-63
2023/06/05 06:36:21;;;;;;;6.97;3.22;;;21.00;95.60;;;;;;4156143;28;20072;-64
2023/06/05 06:38:23;;;;;;;6.82;3.00;;;21.10;95.60;;;;;;4165303;28;20076;-64
2023/06/05 06:40:24;;;;;;;3.97;2.70;;;21.20;95.70;;;;;;4158909;28;20037;-64
2023/06/05 06:42:27;;;;;;;5.00;3.08;;;21.20;94.10;;;;;;4168406;28;20083;-64
2023/06/05 06:44:28;;;;;;;4.63;2.95;;;21.30;94.30;;;;;;4164507;28;20052;-64
2023/06/05 06:46:29;;;;;;;4.55;2.90;;;21.40;95.30;;;;;;4170801;28;20095;-64
2023/06/05 06:48:30;;;;;;;7.40;4.22;;;21.40;95.50;;;;;;4165666;28;20120;-64
2023/06/05 06:50:30;;;;;;;4.93;3.45;;;21.00;93.50;;;;;;4163887;28;20068;-64
2023/06/05 06:52:31;;;;;;;3.60;2.65;;;21.20;95.20;;;;;;4168611;28;20036;-65
2023/06/05 06:54:32;;;;;;;3.78;3.03;;;21.20;93.40;;;;;;4167077;28;20061;-65
2023/06/05 06:56:32;;;;;;;5.25;2.85;;;21.30;94.70;;;;;;4167340;28;20037;-65
2023/06/05 06:58:33;;;;;;;5.53;3.55;;;21.30;94.10;;;;;;4165680;28;20025;-68
2023/06/05 07:00:33;;;;;;;5.68;3.30;;;21.30;95.30;;;;;;4166234;28;20128;-65
2023/06/05 07:02:34;;;;;;;6.63;3.47;;;21.40;94.70;;;;;;4166902;28;20092;-65
2023/06/05 07:04:35;;;;;;;6.47;3.30;;;21.50;94.20;;;;;;4168209;28;20037;-65
2023/06/05 07:06:36;;;;;;;7.70;3.63;;;21.40;93.50;;;;;;4166379;28;20040;-65
2023/06/05 07:08:36;;;;;;;6.95;3.55;;;21.50;95.30;;;;;;4168426;28;20060;-65
2023/06/05 07:10:37;;;;;;;6.90;3.60;;;21.50;94.20;;;;;;4166819;28;20673;-64
2023/06/05 07:12:37;;;;;;;6.78;3.60;;;21.60;94.70;;;;;;4169641;28;20059;-65
2023/06/05 07:14:39;;;;;;;7.43;3.30;;;21.70;94.30;;;;;;4163796;28;20029;-64
2023/06/05 07:16:39;;;;;;;4.47;3.03;;;21.70;94.10;;;;;;4166736;28;20112;-65
2023/06/05 07:18:40;;;;;;;6.35;3.35;;;21.80;94.00;;;;;;4168293;28;20071;-64
2023/06/05 07:20:41;;;;;;;4.90;2.80;;;21.80;94.10;;;;;;4167124;28;20036;-64
2023/06/05 07:22:44;;;;;;;7.82;3.10;;;21.90;93.70;;;;;;4173208;28;20112;-64
2023/06/05 07:24:45;;;;;;;4.68;3.30;;;21.90;94.20;;;;;;4168034;28;20041;-64
2023/06/05 07:26:45;;;;;;;3.85;3.10;;;21.90;93.30;;;;;;4170653;28;20522;-65
2023/06/05 07:28:46;;;;;;;6.82;3.40;;;21.90;94.10;;;;;;4169839;28;20033;-64
2023/06/05 07:30:47;;;;;;;6.82;3.17;;;22.00;94.50;;;;;;4167162;28;20055;-64
2023/06/05 07:32:48;;;;;;;4.57;3.08;;;22.00;93.40;;;;;;4165009;28;20060;-64
2023/06/05 07:34:49;;;;;;;4.95;3.08;;;22.10;93.70;;;;;;4171062;28;20036;-64
2023/06/05 07:36:51;;;;;;;5.75;3.22;;;22.20;94.00;;;;;;4170768;28;20040;-64
2023/06/05 07:38:52;;;;;;;6.57;3.20;;;22.20;93.60;;;;;;4174031;28;20408;-64
2023/06/05 07:40:53;;;;;;;5.88;3.45;;;22.30;92.90;;;;;;4168663;28;20036;-64
2023/06/05 07:42:53;;;;;;;7.28;3.35;;;22.20;92.00;;;;;;4169251;28;20033;-64
2023/06/05 07:44:54;;;;;;;6.07;3.40;;;22.00;93.30;;;;;;4170257;28;20045;-64
2023/06/05 07:46:54;;;;;;;6.53;3.60;;;22.00;93.30;;;;;;4169280;28;20436;-64
2023/06/05 07:48:55;;;;;;;5.90;3.33;;;22.00;93.40;;;;;;4175096;28;20058;-64
2023/06/05 07:50:55;;;;;;;4.50;3.30;;;22.00;92.70;;;;;;4170125;28;20191;-64
2023/06/05 07:52:56;;;;;;;6.18;2.88;;;21.90;91.70;;;;;;4170369;28;20049;-64
2023/06/05 07:54:57;;;;;;;4.75;3.00;;;22.00;94.00;;;;;;4165574;28;20377;-64
2023/06/05 07:56:58;;;;;;;3.78;2.90;;;22.00;92.30;;;;;;4166465;28;20063;-64
2023/06/05 07:59:00;;;;;;;4.82;3.58;;;22.10;92.80;;;;;;4165685;28;20040;-64
2023/06/05 08:01:03;;;;;;;5.95;3.70;;;21.90;92.10;;;;;;4163719;28;20133;-64
2023/06/05 08:03:04;;;;;;;5.65;3.20;;;21.70;92.30;;;;;;4164342;28;20428;-65
2023/06/05 08:05:06;;;;;;;5.05;3.10;;;21.90;93.70;;;;;;4163039;28;20114;-64
2023/06/05 08:07:07;;;;;;;7.13;3.67;;;21.90;93.50;;;;;;4165690;28;20041;-64
2023/06/05 08:09:09;;;;;;;7.57;3.95;;;21.70;93.00;;;;;;4165250;28;20036;-64
2023/06/05 08:11:09;;;;;;;6.07;3.03;;;21.60;92.80;;;;;;4165544;28;20036;-64
2023/06/05 08:13:10;;;;;;;6.25;3.00;;;21.60;93.50;;;;;;4167521;28;20052;-64
2023/06/05 08:15:11;;;;;;;4.72;3.13;;;21.70;94.20;;;;;;4165485;28;20483;-66
2023/06/05 08:17:11;;;;;;;5.15;3.75;;;21.80;93.40;;;;;;4167472;28;20042;-64
2023/06/05 08:19:12;;;;;;;5.40;3.30;;;21.50;92.80;;;;;;4167360;28;20143;-64
2023/06/05 08:21:13;;;;;;;4.18;3.13;;;21.70;94.70;;;;;;4164473;28;20029;-64
2023/06/05 08:23:14;;;;;;;7.20;3.55;;;21.80;94.00;;;;;;4168705;28;20032;-64
2023/06/05 08:25:15;;;;;;;4.10;2.78;;;22.00;94.20;;;;;;4165696;28;20120;-64
2023/06/05 08:27:18;;;;;;;3.88;3.03;;;22.10;94.40;;;;;;4166626;28;20065;-64
2023/06/05 08:29:19;;;;;;;8.02;4.00;;;22.30;93.90;;;;;;4165759;28;20033;-64
2023/06/05 08:31:20;;;;;;;5.45;3.20;;;22.50;94.30;;;;;;4165942;28;20049;-64
2023/06/05 08:33:21;;;;;;;6.15;3.50;;;22.60;94.30;;;;;;4167329;28;20076;-64
2023/06/05 08:35:21;;;;;;;4.50;3.60;;;22.70;93.70;;;;;;4165429;28;20037;-64
2023/06/05 08:37:22;;;;;;;8.48;4.10;;;22.50;92.80;;;;;;4167662;28;20038;-64
2023/06/05 08:39:25;;;;;;;6.45;3.47;;;22.30;92.80;;;;;;4165817;28;20053;-64
2023/06/05 08:41:25;;;;;;;7.10;4.13;;;22.50;94.50;;;;;;4162173;28;20076;-64
2023/06/05 08:43:27;;;;;;;5.25;3.17;;;22.60;92.60;;;;;;4162359;28;20045;-64
2023/06/05 08:45:27;;;;;;;4.18;3.08;;;22.70;93.20;;;;;;4166802;28;20045;-64
2023/06/05 08:47:32;;;;;;;6.03;3.47;;;22.90;93.20;;;;;;4164761;28;20049;-64
2023/06/05 08:49:37;;;;;;;3.92;2.90;;;23.00;93.00;;;;;;4166890;28;20041;-65
2023/06/05 08:51:40;;;;;;;4.30;3.13;;;23.10;93.20;;;;;;4162076;28;20037;-64
2023/06/05 08:53:46;;;;;;;3.15;2.70;;;23.20;93.10;;;;;;4169243;28;20754;-64
2023/06/05 08:55:50;;;;;;;4.45;2.97;;;23.40;92.70;;;;;;4165622;28;20232;-64
2023/06/05 08:57:52;;;;;;;4.60;3.20;;;23.40;92.20;;;;;;4164009;28;20037;-64
2023/06/05 08:59:52;;;;;;;7.90;3.63;;;23.60;92.50;;;;;;4165970;28;20048;-64
2023/06/05 09:01:53;;;;;;;4.18;3.20;;;23.60;92.00;;;;;;4163033;28;20054;-64
2023/06/05 09:03:54;;;;;;;5.10;3.63;;;23.70;92.90;;;;;;4166994;28;20045;-64
2023/06/05 09:05:55;;;;;;;5.60;3.40;;;23.90;92.60;;;;;;4169454;28;20045;-64
2023/06/05 09:07:56;;;;;;;4.18;3.10;;;23.90;91.90;;;;;;4170618;28;20484;-64
2023/06/05 09:09:58;;;;;;;4.55;3.08;;;23.90;91.90;;;;;;4166316;28;20103;-64
2023/06/05 09:12:06;;;;;;;6.55;3.78;;;24.00;91.50;;;;;;4164785;28;20044;-64
2023/06/05 09:14:06;;;;;;;4.57;2.90;;;24.10;92.00;;;;;;4162299;28;20038;-64
2023/06/05 09:16:07;;;;;;;3.45;2.92;;;24.10;90.90;;;;;;4164071;28;20369;-64
2023/06/05 09:18:10;;;;;;;4.32;3.25;;;24.20;91.30;;;;;;4161266;28;20116;-64
2023/06/05 09:20:23;;;;;;;4.63;2.80;;;24.30;92.20;;;;;;4163418;28;20065;-65
2023/06/05 09:22:34;;;;;;;;;;;24.30;90.20;;;;;;4164638;28;20048;-64
2023/06/05 09:24:36;;;;;;;5.32;3.42;;;24.30;91.70;;;;;;4160463;28;19916;-65
2023/06/05 09:26:56;;;;;;;5.20;2.78;;;24.40;91.00;;;;;;4159726;28;20076;-65
2023/06/05 09:28:58;;;;;;;7.55;3.10;;;24.50;91.50;;;;;;4162010;28;20069;-64
2023/06/05 09:31:03;;;;;;;4.68;3.17;;;24.40;90.90;;;;;;4165654;28;20150;-64
2023/06/05 09:33:09;;;;;;;4.10;2.63;;;24.50;90.90;;;;;;4165215;28;20381;-64
2023/06/05 09:35:16;;;;;;;6.05;3.40;;;24.50;91.00;;;;;;4163374;28;20048;-64
2023/06/05 09:37:16;;;;;;;4.20;3.00;;;24.60;90.80;;;;;;4164569;28;20102;-64
2023/06/05 09:39:19;;;;;;;4.97;3.00;;;24.70;90.60;;;;;;4163332;28;20594;-64
2023/06/05 09:41:20;;;;;;;5.75;3.38;;;24.70;90.50;;;;;;4161732;28;20044;-64
2023/06/05 09:43:24;;;;;;;5.65;2.42;;;24.60;90.60;;;;;;4163059;28;20563;-64
2023/06/05 09:45:41;;;;;;;5.38;2.92;;;24.80;91.10;;;;;;4161772;28;20041;-64
2023/06/05 09:47:42;;;;;;;7.10;3.47;;;24.90;90.10;;;;;;4165113;28;20045;-65
2023/06/05 09:49:43;;;;;;;5.57;3.20;;;24.90;90.10;;;;;;4165205;28;20468;-64
2023/06/05 09:51:44;;;;;;;6.07;3.00;;;24.90;89.90;;;;;;4163193;28;20029;-65
2023/06/05 09:53:51;;;;;;;7.10;3.22;;;25.00;89.30;;;;;;4166061;28;20047;-64
2023/06/05 09:55:51;;;;;;;4.82;2.95;;;24.80;89.70;;;;;;4161626;28;20465;-65
2023/06/05 09:57:53;;;;;;;4.32;2.70;;;24.90;90.00;;;;;;4165130;28;20057;-64
2023/06/05 09:59:55;;;;;;;5.20;2.80;;;24.90;87.70;;;;;;4162817;28;20041;-64
2023/06/05 10:01:59;;;;;;;2.65;2.28;;;24.90;89.90;;;;;;4162789;28;20484;-65
2023/06/05 10:04:05;;;;;;;6.28;3.03;;;25.00;90.00;;;;;;4165689;28;20036;-64
2023/06/05 10:06:07;;;;;;;5.20;3.38;;;25.10;89.90;;;;;;4162564;28;20543;-65
2023/06/05 10:08:08;;;;;;;4.85;3.15;;;25.10;89.70;;;;;;4165311;28;20029;-65
2023/06/05 10:10:10;;;;;;;6.30;2.90;;;25.10;89.80;;;;;;4162654;28;20036;-67
2023/06/05 10:12:11;;;;;;;5.77;3.30;;;25.20;86.50;;;;;;4165013;28;20472;-65
2023/06/05 10:14:12;;;;;;;6.60;3.78;;;25.30;90.00;;;;;;4164394;28;20280;-65
2023/06/05 10:16:13;;;;;;;6.18;2.70;;;25.30;89.60;;;;;;4165221;28;20511;-64
2023/06/05 10:18:13;;;;;;;5.30;2.78;;;25.40;88.20;;;;;;4166485;28;20033;-65
2023/06/05 10:20:14;;;;;;;5.07;2.97;;;25.20;86.10;;;;;;4163046;28;20064;-64
2023/06/05 10:22:18;;;;;;;4.82;3.05;;;25.40;88.50;;;;;;4162731;28;20037;-65
2023/06/05 10:24:23;;;;;;;5.93;3.38;;;25.40;88.70;;;;;;4164197;28;20073;-64
2023/06/05 10:26:53;;;;;;;5.03;3.17;;;25.30;88.30;;;;;;4162189;28;20049;-64
2023/06/05 10:29:03;;;;;;;4.78;3.10;;;25.40;90.00;;;;;;4164334;28;20037;-65
2023/06/05 10:31:22;;;;;;;5.80;2.90;;;25.40;89.70;;;;;;4163349;28;20042;-64
2023/06/05 10:33:38;;;;;;;6.00;2.95;;;25.40;88.00;;;;;;4162904;28;20041;-65
2023/06/05 10:36:09;;;;;;;4.40;3.08;;;25.60;87.60;;;;;;4162379;28;20045;-65